Terminal Aerodrome Forecast
Issued by NWS

Home | Current Version | Previous Version | Text Only | Print | Product List | Glossary On
Versions: 1 2 3 4 5 6 7 8 9 10 11 12 13
000
FTUS45 KTFX 232300
TAFCTB
TAF
KCTB 232338Z 2400/2424 VRB06KT P6SM SCT180
     FM240200 VRB06KT P6SM SCT080 BKN150
      TEMPO 2402/2406 VRB20G50KT 5SM -TSRA BKN050CB
     FM240600 25012KT P6SM VCTS SCT050CB BKN090
     FM241000 27020G35KT P6SM SCT150
     FM241800 25030G45KT P6SM SKC=

USA.gov is the U.S. government's official web portal to all federal, state and local government web resources and services.